Time;durP1;ratioP1;P1;durP2;ratioP2;P2;SDS_P1;SDS_P2;PMS_P1;PMS_P2;Temp;Humidity;BMP_temperature;BMP_pressure;BME280_temperature;BME280_humidity;BME280_pressure;Samples;Min_cycle;Max_cycle;Signal;HPM_P1;HPM_P2
2022/12/22 03:29:20;;;;;;;93.55;21.38;;;;;;;7.91;100.00;99884.56;10538742;28;20412;-63
2022/12/22 03:34:24;;;;;;;18.88;16.92;;;;;;;7.90;100.00;99876.84;10538319;28;20136;-63
2022/12/22 03:39:25;;;;;;;27.50;14.93;;;;;;;7.88;100.00;99869.13;10539023;28;20097;-64
2022/12/22 03:49:47;;;;;;;214.40;21.48;;;;;;;7.86;100.00;99860.53;10538020;28;20460;-65
2022/12/22 03:54:50;;;;;;;17.23;15.43;;;;;;;7.85;100.00;99870.09;10538040;28;20557;-64
2022/12/22 03:59:51;;;;;;;18.05;16.15;;;;;;;7.87;100.00;99867.41;10537888;28;20050;-64
2022/12/22 04:04:54;;;;;;;20.88;15.32;;;;;;;7.91;100.00;99858.59;10537783;28;20098;-64
2022/12/22 04:15:15;;;;;;;29.90;16.48;;;;;;;7.82;100.00;99848.59;10534975;28;20048;-64
2022/12/22 04:20:21;;;;;;;21.92;16.10;;;;;;;7.83;100.00;99845.09;10537548;28;20082;-65
2022/12/22 04:25:24;;;;;;;20.25;17.58;;;;;;;7.90;100.00;99836.09;10536596;28;20487;-65
2022/12/22 04:30:26;;;;;;;17.88;15.98;;;;;;;7.91;100.00;99853.38;10536340;28;20117;-65
2022/12/22 04:35:29;;;;;;;21.85;19.77;;;;;;;7.91;100.00;99843.00;10536424;28;20426;-65
2022/12/22 04:40:31;;;;;;;25.88;20.30;;;;;;;7.93;100.00;99856.75;10536589;28;20044;-65
2022/12/22 04:45:32;;;;;;;23.48;20.25;;;;;;;7.93;100.00;99864.53;10534211;28;20052;-64
2022/12/22 04:50:35;;;;;;;21.40;19.15;;;;;;;7.92;100.00;99860.25;10536407;28;20044;-64
2022/12/22 04:55:37;;;;;;;22.33;20.08;;;;;;;7.92;100.00;99860.25;10536288;28;20120;-64
2022/12/22 05:00:39;;;;;;;25.30;16.65;;;;;;;7.89;100.00;99860.41;10535776;28;20514;-64
2022/12/22 05:05:42;;;;;;;73.03;15.75;;;;;;;7.78;100.00;99860.06;10535739;28;20092;-64
2022/12/22 05:10:44;;;;;;;246.68;29.88;;;;;;;7.70;100.00;99856.06;10535979;28;20044;-64
2022/12/22 05:15:45;;;;;;;13.55;12.02;;;;;;;7.75;100.00;99849.81;10533799;28;20051;-64
2022/12/22 05:20:48;;;;;;;18.17;12.93;;;;;;;7.76;100.00;99843.72;10535631;28;20407;-64
2022/12/22 05:25:50;;;;;;;15.90;13.15;;;;;;;7.76;100.00;99844.53;10535089;28;20499;-64
2022/12/22 05:30:53;;;;;;;16.42;12.00;;;;;;;7.73;100.00;99863.72;10535319;28;20557;-64
2022/12/22 05:35:56;;;;;;;14.73;12.90;;;;;;;7.72;100.00;99869.81;10534968;28;20040;-64
2022/12/22 05:41:00;;;;;;;19.08;13.70;;;;;;;7.73;100.00;99871.50;10541134;28;20048;-65
2022/12/22 05:46:03;;;;;;;19.15;14.52;;;;;;;7.86;100.00;99879.56;10541151;28;20105;-65
2022/12/22 05:51:07;;;;;;;23.65;16.92;;;;;;;7.93;100.00;99882.72;10543229;28;20048;-65
2022/12/22 05:56:09;;;;;;;19.05;14.68;;;;;;;7.98;100.00;99895.50;10542413;28;20044;-64
2022/12/22 06:01:11;;;;;;;23.85;14.77;;;;;;;7.96;100.00;99898.16;10542445;28;20400;-65
2022/12/22 06:06:14;;;;;;;21.17;16.73;;;;;;;7.97;100.00;99918.03;10542490;28;20048;-64
2022/12/22 06:11:18;;;;;;;23.95;18.45;;;;;;;8.00;100.00;99924.84;10542357;28;20051;-64
2022/12/22 06:16:19;;;;;;;24.77;18.08;;;;;;;7.97;100.00;99944.00;10539712;28;20040;-65
2022/12/22 06:21:22;;;;;;;30.58;19.20;;;;;;;7.95;100.00;99938.06;10541635;28;20048;-65
2022/12/22 06:26:24;;;;;;;27.33;17.98;;;;;;;7.96;100.00;99957.94;10542141;28;20070;-64
2022/12/22 06:31:26;;;;;;;32.03;19.52;;;;;;;7.95;100.00;99969.25;10541566;28;20089;-64
2022/12/22 06:36:29;;;;;;;31.58;21.23;;;;;;;7.94;100.00;99972.72;10541347;28;20067;-64
2022/12/22 06:46:50;;;;;;;40.25;24.83;;;;;;;7.94;100.00;99990.91;10538010;28;20070;-64
2022/12/22 06:51:53;;;;;;;70.88;49.63;;;;;;;7.95;100.00;99994.38;10540798;28;20101;-64
2022/12/22 06:56:54;;;;;;;80.85;60.92;;;;;;;7.95;100.00;100004.75;10540188;28;20055;-64
2022/12/22 07:01:56;;;;;;;70.68;25.33;;;;;;;7.94;100.00;100011.69;10540028;28;20059;-64
2022/12/22 07:06:59;;;;;;;62.25;24.50;;;;;;;7.93;100.00;100028.22;10540856;28;20048;-64
2022/12/22 07:12:01;;;;;;;75.70;33.63;;;;;;;7.91;100.00;100045.63;10540332;28;20044;-64
2022/12/22 07:17:02;;;;;;;76.75;38.88;;;;;;;7.89;100.00;100057.84;10537051;28;20048;-64
2022/12/22 07:22:05;;;;;;;69.05;33.03;;;;;;;7.88;100.00;100061.34;10539722;28;20105;-65
2022/12/22 07:27:07;;;;;;;79.30;69.03;;;;;;;7.82;100.00;100054.66;10539063;28;20124;-64
2022/12/22 07:32:09;;;;;;;59.08;32.53;;;;;;;7.77;100.00;100050.59;10539386;28;20051;-65
2022/12/22 07:37:13;;;;;;;92.28;53.10;;;;;;;7.67;100.00;100061.34;10539091;28;20048;-64
2022/12/22 07:47:34;;;;;;;67.50;31.95;;;;;;;7.51;100.00;100071.56;10534653;28;20036;-64
2022/12/22 07:52:37;;;;;;;84.65;32.22;;;;;;;7.56;100.00;100085.19;10536618;28;20495;-65
2022/12/22 07:57:39;;;;;;;79.57;31.05;;;;;;;7.56;100.00;100097.34;10536655;28;20442;-65
2022/12/22 08:02:42;;;;;;;91.72;36.20;;;;;;;7.55;100.00;100119.00;10535721;28;20067;-64
2022/12/22 08:07:45;;;;;;;75.60;34.63;;;;;;;7.57;100.00;100135.38;10538070;28;20048;-64
2022/12/22 08:12:47;;;;;;;83.63;30.42;;;;;;;7.54;100.00;100151.06;10537106;28;20051;-66
2022/12/22 08:17:50;;;;;;;118.40;38.67;;;;;;;7.47;100.00;100172.09;10535214;28;20492;-64
2022/12/22 08:22:53;;;;;;;118.70;67.68;;;;;;;7.45;100.00;100160.94;10537051;28;20047;-65
2022/12/22 08:27:57;;;;;;;102.88;49.25;;;;;;;7.49;100.00;100173.81;10536304;28;20467;-63
2022/12/22 08:32:58;;;;;;;94.90;37.90;;;;;;;7.53;100.00;100175.38;10536524;28;20048;-64
2022/12/22 08:38:02;;;;;;;74.65;35.75;;;;;;;7.51;100.00;100184.94;10536895;28;20078;-64
2022/12/22 08:43:09;;;;;;;99.05;47.40;;;;;;;7.44;100.00;100213.78;10535389;28;20109;-65
2022/12/22 08:48:11;;;;;;;107.68;40.63;;;;;;;7.47;100.00;100226.59;10536119;28;20078;-63
2022/12/22 08:53:14;;;;;;;124.93;47.38;;;;;;;7.45;100.00;100246.59;10535954;28;20101;-64
2022/12/22 08:58:17;;;;;;;155.07;101.78;;;;;;;7.45;100.00;100257.00;10536470;28;20106;-64
2022/12/22 09:03:18;;;;;;;120.28;37.50;;;;;;;7.44;100.00;100255.31;10536012;28;20052;-64
2022/12/22 09:08:23;;;;;;;96.32;34.72;;;;;;;7.31;100.00;100272.25;10535820;28;20078;-64
2022/12/22 09:13:24;;;;;;;93.60;34.30;;;;;;;7.19;100.00;100266.59;10534855;28;20056;-64
2022/12/22 09:18:26;;;;;;;105.97;33.33;;;;;;;7.07;100.00;100267.94;10544309;28;20184;-64
2022/12/22 09:23:30;;;;;;;130.90;50.67;;;;;;;7.03;100.00;100270.69;10544198;28;20407;-64
2022/12/22 09:28:32;;;;;;;98.90;35.17;;;;;;;7.00;100.00;100276.84;10543544;28;20051;-64
2022/12/22 09:33:36;;;;;;;94.00;36.63;;;;;;;7.17;100.00;100288.34;10544014;28;20052;-64
2022/12/22 09:38:40;;;;;;;102.53;37.25;;;;;;;7.32;100.00;100281.72;10542801;28;20135;-64
2022/12/22 09:43:43;;;;;;;89.95;34.50;;;;;;;7.33;100.00;100299.84;10540464;28;20090;-64
2022/12/22 09:48:44;;;;;;;132.48;66.32;;;;;;;7.50;100.00;100305.31;10543058;28;20078;-64
2022/12/22 09:53:54;;;;;;;97.00;41.88;;;;;;;7.45;100.00;100308.91;10542619;28;20039;-64
2022/12/22 09:58:57;;;;;;;98.30;42.15;;;;;;;7.20;100.00;100309.84;10542569;28;20048;-63
2022/12/22 10:04:12;;;;;;;109.35;41.83;;;;;;;7.24;100.00;100317.50;10542344;28;20056;-64
2022/12/22 10:09:22;;;;;;;90.75;39.53;;;;;;;7.51;100.00;100331.22;10542388;28;20480;-65
2022/12/22 10:14:33;;;;;;;104.10;75.07;;;;;;;7.89;100.00;100338.44;10539309;28;20430;-64
2022/12/22 10:19:35;;;;;;;72.15;40.38;;;;;;;7.80;100.00;100341.41;10542306;28;20052;-64
2022/12/22 10:24:38;;;;;;;94.28;84.45;;;;;;;7.72;100.00;100337.34;10541241;28;20074;-65
2022/12/22 10:29:40;;;;;;;70.70;63.58;;;;;;;7.98;100.00;100334.63;10541368;28;20419;-65
2022/12/22 10:35:00;;;;;;;38.55;21.27;;;;;;;7.79;100.00;100342.28;10540869;28;20473;-67
2022/12/22 10:40:23;;;;;;;29.58;22.17;;;;;;;7.79;100.00;100352.66;10540990;28;20044;-64
2022/12/22 10:45:27;;;;;;;;;;;;;;;7.78;100.00;100353.59;10538403;28;20048;-64
2022/12/22 10:50:30;;;;;;;21.25;17.55;;;;;;;8.17;100.00;100357.25;10540922;28;19920;-64
2022/12/22 10:55:37;;;;;;;30.80;27.58;;;;;;;8.14;100.00;100355.63;10540136;28;20553;-66
2022/12/22 11:00:40;;;;;;;27.00;24.42;;;;;;;8.18;100.00;100364.16;10539882;28;20454;-66
2022/12/22 11:05:44;;;;;;;26.45;23.45;;;;;;;8.28;100.00;100369.84;10540462;28;20055;-67
2022/12/22 11:10:57;;;;;;;25.30;22.70;;;;;;;7.94;100.00;100372.84;10540344;28;20094;-65
2022/12/22 11:16:08;;;;;;;39.70;35.42;;;;;;;7.58;100.00;100382.03;10537327;28;20090;-65
2022/12/22 11:21:20;;;;;;;24.48;17.75;;;;;;;7.63;100.00;100373.22;10539140;28;20476;-67
2022/12/22 11:26:40;;;;;;;28.05;18.10;;;;;;;7.80;100.00;100360.41;10539522;28;20044;-68
2022/12/22 11:32:05;;;;;;;30.48;19.17;;;;;;;7.65;100.00;100377.44;10539727;28;20086;-66
2022/12/22 11:37:26;;;;;;;32.53;21.88;;;;;;;7.73;100.00;100384.91;10538425;28;20070;-67
2022/12/22 11:42:55;;;;;;;30.45;22.45;;;;;;;7.69;100.00;100386.81;10538414;28;20437;-68
2022/12/22 11:48:15;;;;;;;28.77;18.60;;;;;;;8.08;100.00;100390.50;10535825;28;20052;-68
2022/12/22 11:53:47;;;;;;;28.67;20.33;;;;;;;8.01;100.00;100389.09;10537924;28;20495;-64
2022/12/22 11:59:23;;;;;;;24.42;17.40;;;;;;;7.77;100.00;100390.88;10537998;28;20097;-66
2022/12/22 12:05:15;;;;;;;24.75;17.67;;;;;;;7.72;100.00;100378.91;10537845;28;20090;-65
2022/12/22 12:10:24;;;;;;;27.10;17.45;;;;;;;7.76;100.00;100383.97;10538263;28;20050;-68
2022/12/22 12:15:36;;;;;;;25.58;16.85;;;;;;;7.76;100.00;100358.00;10534594;28;20397;-66
2022/12/22 12:20:59;;;;;;;26.98;18.48;;;;;;;7.79;100.00;100357.88;10537143;28;20058;-66
2022/12/22 12:26:11;;;;;;;24.65;15.27;;;;;;;7.91;100.00;100351.38;10537123;28;20094;-66
2022/12/22 12:31:21;;;;;;;19.17;13.57;;;;;;;7.89;100.00;100343.63;10537427;28;20048;-66
2022/12/22 12:36:35;;;;;;;21.88;14.95;;;;;;;7.95;100.00;100338.19;10537021;28;20101;-67
2022/12/22 12:41:52;;;;;;;21.08;14.50;;;;;;;8.04;100.00;100330.94;10529558;28;20092;-66
2022/12/22 12:47:22;;;;;;;24.98;15.13;;;;;;;8.00;100.00;100327.59;10533848;28;20122;-66
2022/12/22 12:53:06;;;;;;;22.27;14.70;;;;;;;7.91;100.00;100336.63;10535393;28;20040;-65
2022/12/22 12:58:12;;;;;;;21.58;15.77;;;;;;;7.95;100.00;100326.94;10536410;28;20178;-67
2022/12/22 13:03:38;;;;;;;26.17;17.90;;;;;;;8.02;100.00;100327.53;10535821;28;20060;-66
2022/12/22 13:09:18;;;;;;;26.50;18.02;;;;;;;8.16;100.00;100327.84;10536410;28;20135;-64
2022/12/22 13:14:57;;;;;;;27.83;16.25;;;;;;;8.12;100.00;100332.31;10527944;28;20036;-66
2022/12/22 13:20:00;;;;;;;22.77;15.60;;;;;;;8.05;100.00;100332.63;10523863;28;20121;-67
2022/12/22 13:25:03;;;;;;;24.25;17.38;;;;;;;8.02;100.00;100328.41;10527571;28;20059;-66
2022/12/22 13:30:12;;;;;;;23.85;16.88;;;;;;;8.04;100.00;100330.94;10535413;28;20083;-65
2022/12/22 13:35:21;;;;;;;22.45;17.27;;;;;;;7.99;100.00;100329.38;10536202;28;20098;-62
2022/12/22 13:40:29;;;;;;;14.00;11.48;;;;;;;7.98;100.00;100317.25;10534869;28;20044;-64
2022/12/22 13:45:36;;;;;;;19.23;11.85;;;;;;;7.99;100.00;100312.94;10532427;28;20451;-64
2022/12/22 13:50:45;;;;;;;17.13;12.90;;;;;;;7.94;100.00;100300.09;10535716;28;20149;-65
2022/12/22 13:55:48;;;;;;;20.35;14.25;;;;;;;8.01;100.00;100303.31;10535270;28;20044;-65
2022/12/22 14:01:02;;;;;;;15.23;12.50;;;;;;;7.98;100.00;100300.84;10538479;28;20056;-64
2022/12/22 14:06:26;;;;;;;17.88;11.80;;;;;;;7.90;100.00;100280.34;10536348;28;20098;-65
2022/12/22 14:11:30;;;;;;;417.65;387.77;;;;;;;7.84;100.00;100283.22;10541932;28;20051;-65
2022/12/22 14:16:32;;;;;;;18.33;16.63;;;;;;;7.82;100.00;100279.81;10539473;28;20050;-66
2022/12/22 14:21:35;;;;;;;11.05;9.95;;;;;;;7.80;100.00;100269.50;10542801;28;20066;-64
2022/12/22 14:26:37;;;;;;;15.32;13.85;;;;;;;7.70;100.00;100261.22;10541435;28;20079;-64
2022/12/22 14:31:52;;;;;;;14.70;10.88;;;;;;;7.57;100.00;100255.66;10541286;28;20048;-64
2022/12/22 14:36:56;;;;;;;233.30;181.05;;;;;;;7.40;100.00;100255.47;10541705;28;20086;-65
2022/12/22 14:42:02;;;;;;;69.72;64.50;;;;;;;7.33;100.00;100254.88;10540724;28;20498;-63
2022/12/22 14:47:14;;;;;;;9.63;7.72;;;;;;;7.27;100.00;100237.78;10536885;28;20557;-63
2022/12/22 14:52:25;;;;;;;11.10;8.10;;;;;;;7.22;100.00;100229.31;10539144;28;20089;-64
2022/12/22 14:57:36;;;;;;;61.50;55.83;;;;;;;7.15;100.00;100239.09;10539557;28;20105;-64
2022/12/22 15:02:49;;;;;;;16.85;15.10;;;;;;;7.08;100.00;100232.44;10539270;28;20147;-65
2022/12/22 15:07:55;;;;;;;15.95;12.68;;;;;;;7.03;100.00;100223.97;10538783;28;20495;-65
2022/12/22 15:13:04;;;;;;;15.57;13.98;;;;;;;7.01;100.00;100218.03;10538397;28;20109;-64
2022/12/22 15:18:06;;;;;;;59.47;55.63;;;;;;;6.96;100.00;100213.00;10535718;28;20203;-64
2022/12/22 15:23:15;;;;;;;63.58;55.40;;;;;;;6.97;100.00;100208.66;10538836;28;20063;-65
2022/12/22 15:28:17;;;;;;;13.73;8.57;;;;;;;6.96;100.00;100210.41;10537914;28;20113;-65
2022/12/22 15:33:19;;;;;;;21.52;19.63;;;;;;;7.00;100.00;100213.72;10537948;28;20062;-64
2022/12/22 15:38:25;;;;;;;37.33;34.03;;;;;;;7.00;100.00;100203.34;10537428;28;20047;-65
2022/12/22 15:43:27;;;;;;;19.40;17.73;;;;;;;7.00;100.00;100192.97;10535347;28;20124;-64
2022/12/22 15:48:33;;;;;;;15.65;14.00;;;;;;;7.05;100.00;100184.09;10537717;28;20184;-64
2022/12/22 15:53:37;;;;;;;13.77;12.40;;;;;;;7.07;100.00;100181.44;10536465;28;20058;-65
2022/12/22 15:58:38;;;;;;;94.53;87.68;;;;;;;7.12;100.00;100176.91;10536794;28;20101;-65
2022/12/22 16:03:40;;;;;;;60.70;48.70;;;;;;;7.15;100.00;100165.59;10536512;28;20048;-63
2022/12/22 16:08:49;;;;;;;23.73;14.10;;;;;;;7.18;100.00;100157.66;10536890;28;20047;-65
2022/12/22 16:13:52;;;;;;;94.82;85.13;;;;;;;7.20;100.00;100146.34;10534167;28;20060;-64
2022/12/22 16:18:56;;;;;;;193.82;182.73;;;;;;;7.21;100.00;100135.06;10535714;28;20052;-64
2022/12/22 16:24:02;;;;;;;297.00;270.05;;;;;;;7.27;100.00;100127.91;10535572;28;20097;-64
2022/12/22 16:29:04;;;;;;;29.67;22.85;;;;;;;7.31;100.00;100122.56;10535194;28;20044;-65
2022/12/22 16:34:06;;;;;;;15.88;14.38;;;;;;;7.36;100.00;100116.31;10536265;28;20145;-64
2022/12/22 16:39:09;;;;;;;23.70;21.95;;;;;;;7.39;100.00;100116.22;10535228;28;20475;-64
2022/12/22 16:44:23;;;;;;;82.13;76.50;;;;;;;7.46;100.00;100113.28;10532545;28;20051;-63
2022/12/22 16:49:24;;;;;;;12.63;10.88;;;;;;;7.52;100.00;100100.97;10534780;28;20169;-64
2022/12/22 16:54:27;;;;;;;32.53;30.05;;;;;;;7.63;100.00;100093.56;10535006;28;20086;-63
2022/12/22 16:59:29;;;;;;;595.60;540.17;;;;;;;7.71;100.00;100085.47;10534694;28;20047;-64
2022/12/22 17:04:32;;;;;;;413.58;288.17;;;;;;;7.81;100.00;100091.97;10534419;28;20109;-63
2022/12/22 17:09:45;;;;;;;152.75;115.20;;;;;;;7.90;100.00;100088.09;10534161;28;20454;-65
2022/12/22 17:14:48;;;;;;;23.70;17.70;;;;;;;7.96;100.00;100080.03;10532126;28;20461;-64
2022/12/22 17:19:51;;;;;;;36.60;19.40;;;;;;;8.05;100.00;100084.00;10535581;28;20051;-65
2022/12/22 17:25:00;;;;;;;111.68;101.35;;;;;;;8.14;100.00;100074.94;10534076;28;20044;-65
2022/12/22 17:30:03;;;;;;;27.33;10.73;;;;;;;8.19;100.00;100072.13;10534298;28;20101;-65
2022/12/22 17:35:06;;;;;;;24.08;10.10;;;;;;;8.26;100.00;100063.16;10536940;28;20059;-65
2022/12/22 17:40:23;;;;;;;40.78;11.43;;;;;;;8.29;100.00;100057.81;10542535;28;20040;-65
2022/12/22 17:45:25;;;;;;;33.83;9.18;;;;;;;8.37;100.00;100047.06;10540169;28;20044;-65
2022/12/22 17:50:26;;;;;;;36.03;9.85;;;;;;;8.50;100.00;100035.19;10541907;28;20052;-65
2022/12/22 17:55:31;;;;;;;33.45;8.75;;;;;;;8.57;100.00;100034.91;10542025;28;20104;-67
2022/12/22 18:00:32;;;;;;;24.90;8.98;;;;;;;8.61;100.00;100036.47;10541640;28;20044;-65
2022/12/22 18:05:43;;;;;;;21.85;8.10;;;;;;;8.65;100.00;100030.19;10541518;28;20290;-63
2022/12/22 18:10:48;;;;;;;26.00;8.52;;;;;;;8.68;100.00;100035.25;10541365;28;20048;-65
2022/12/22 18:15:49;;;;;;;30.65;9.43;;;;;;;8.71;100.00;100040.31;10538220;28;20102;-66
2022/12/22 18:20:52;;;;;;;42.30;9.93;;;;;;;8.74;100.00;100024.56;10540551;28;20523;-65
2022/12/22 18:25:56;;;;;;;33.28;8.15;;;;;;;8.79;100.00;100028.72;10540658;28;20557;-64
2022/12/22 18:30:58;;;;;;;45.67;9.02;;;;;;;8.85;100.00;100024.03;10540051;28;20044;-67
2022/12/22 18:36:01;;;;;;;47.55;9.75;;;;;;;8.90;100.00;100021.22;10539755;28;20411;-67
2022/12/22 18:41:06;;;;;;;45.63;9.13;;;;;;;8.92;100.00;100024.59;10535720;28;20058;-67
2022/12/22 18:46:10;;;;;;;36.53;8.25;;;;;;;8.94;100.00;100032.31;10536141;28;20052;-67
2022/12/22 18:51:21;;;;;;;44.47;8.18;;;;;;;8.96;100.00;100026.13;10539902;28;20048;-67
2022/12/22 18:56:24;;;;;;;51.33;9.90;;;;;;;9.03;100.00;100018.84;10539055;28;20040;-65
2022/12/22 19:01:27;;;;;;;46.88;9.07;;;;;;;9.00;100.00;100013.81;10538572;28;20457;-64
2022/12/22 19:06:28;;;;;;;44.30;9.32;;;;;;;9.01;100.00;100021.53;10538969;28;20051;-64
2022/12/22 19:11:33;;;;;;;48.70;9.02;;;;;;;9.00;100.00;100029.44;10538472;28;20056;-65
2022/12/22 19:16:34;;;;;;;45.05;12.00;;;;;;;9.02;100.00;100025.84;10536463;28;20047;-64
2022/12/22 19:21:36;;;;;;;48.35;10.30;;;;;;;9.02;100.00;100041.44;10538105;28;20454;-65
2022/12/22 19:26:40;;;;;;;30.98;9.07;;;;;;;9.06;100.00;100049.13;10538344;28;20459;-66
2022/12/22 19:31:44;;;;;;;52.63;9.27;;;;;;;9.06;100.00;100049.13;10537905;28;20060;-63
2022/12/22 19:36:45;;;;;;;52.40;8.45;;;;;;;9.08;100.00;100045.50;10516553;28;20083;-67
2022/12/22 19:41:52;;;;;;;40.20;21.27;;;;;;;9.09;100.00;100048.94;10494914;28;20458;-65
2022/12/22 19:46:57;;;;;;;30.60;8.85;;;;;;;9.09;100.00;100054.16;10492773;28;20048;-66
2022/12/22 19:51:59;;;;;;;39.13;10.10;;;;;;;9.08;100.00;100057.69;10495443;28;20246;-65
2022/12/22 19:57:06;;;;;;;69.75;14.40;;;;;;;9.09;100.00;100051.53;10494730;28;20102;-66
2022/12/22 20:02:26;;;;;;;42.63;9.00;;;;;;;9.06;100.00;100051.72;10494733;28;20570;-66
2022/12/22 20:07:31;;;;;;;52.08;9.45;;;;;;;9.06;100.00;100049.13;10494321;28;20049;-66
2022/12/22 20:12:41;;;;;;;38.60;9.45;;;;;;;9.08;100.00;100055.06;10494820;28;20489;-67
2022/12/22 20:17:42;;;;;;;52.50;10.38;;;;;;;9.02;100.00;100049.25;10510498;28;20043;-66
2022/12/22 20:22:48;;;;;;;46.58;13.18;;;;;;;9.04;100.00;100050.94;10535982;28;20052;-65
2022/12/22 20:27:53;;;;;;;52.45;9.25;;;;;;;9.04;100.00;100051.78;10535706;28;20082;-66
2022/12/22 20:32:55;;;;;;;48.25;8.93;;;;;;;9.00;100.00;100048.47;10535976;28;20550;-65
2022/12/22 20:37:59;;;;;;;49.22;8.55;;;;;;;9.00;100.00;100053.69;10537108;28;20052;-65
2022/12/22 20:43:02;;;;;;;48.95;9.45;;;;;;;8.99;100.00;100057.22;10536494;28;20052;-64
2022/12/22 20:48:05;;;;;;;24.38;7.68;;;;;;;8.95;100.00;100047.88;10533984;28;20090;-65
2022/12/22 20:53:07;;;;;;;39.60;8.27;;;;;;;8.97;100.00;100053.81;10536673;28;20101;-64
2022/12/22 20:58:17;;;;;;;30.60;7.57;;;;;;;8.95;100.00;100047.88;10536453;28;20406;-66
2022/12/22 21:03:19;;;;;;;27.70;7.70;;;;;;;8.96;100.00;100046.13;10535459;28;20497;-64
2022/12/22 21:08:24;;;;;;;29.75;7.05;;;;;;;8.93;100.00;100044.47;10538756;28;20093;-65
2022/12/22 21:13:27;;;;;;;22.88;6.78;;;;;;;8.86;100.00;100038.72;10546728;28;20500;-66
2022/12/22 21:18:28;;;;;;;23.23;6.70;;;;;;;8.93;100.00;100039.28;10549074;28;20573;-64
2022/12/22 21:23:30;;;;;;;79.78;35.20;;;;;;;8.91;100.00;100043.72;10549266;28;20101;-65
2022/12/22 21:28:37;;;;;;;677.45;570.17;;;;;;;8.82;100.00;100025.94;10549123;28;20074;-64
2022/12/22 21:33:38;;;;;;;1178.65;759.42;;;;;;;8.75;100.00;100028.84;10549167;28;20052;-65
2022/12/22 21:38:40;;;;;;;828.45;454.33;;;;;;;8.71;100.00;100029.91;10548772;28;20446;-64
2022/12/22 21:43:43;;;;;;;635.90;406.63;;;;;;;8.68;100.00;100024.84;10547356;28;20104;-66
2022/12/22 21:48:46;;;;;;;793.78;410.80;;;;;;;8.63;100.00;100024.25;10548994;28;20048;-68
2022/12/22 21:53:48;;;;;;;891.80;377.27;;;;;;;8.67;100.00;100027.53;10549116;28;20059;-66
2022/12/22 21:58:51;;;;;;;828.15;465.33;;;;;;;8.68;100.00;100030.06;10549471;28;20064;-68
2022/12/22 22:03:53;;;;;;;881.75;518.63;;;;;;;8.73;100.00;100017.66;10548893;28;20055;-68
2022/12/22 22:08:54;;;;;;;962.15;558.65;;;;;;;8.73;100.00;100022.03;10549483;28;20070;-67
2022/12/22 22:13:57;;;;;;;898.38;443.85;;;;;;;8.78;100.00;100029.59;10546530;28;20111;-66
2022/12/22 22:18:59;;;;;;;1068.85;525.17;;;;;;;8.87;100.00;100042.19;10548530;28;20055;-66
2022/12/22 22:24:01;;;;;;;705.05;413.67;;;;;;;8.89;100.00;100037.75;10542061;28;20048;-66
2022/12/22 22:29:04;;;;;;;779.55;527.47;;;;;;;8.89;100.00;100043.78;10541792;28;20044;-66
2022/12/22 22:34:06;;;;;;;873.72;530.58;;;;;;;8.90;100.00;100044.66;10542474;28;20066;-66
2022/12/22 22:39:07;;;;;;;791.47;435.42;;;;;;;8.91;100.00;100046.34;10541295;28;20480;-67
2022/12/22 22:44:11;;;;;;;755.83;401.38;;;;;;;8.90;100.00;100044.66;10539254;28;20110;-68
2022/12/22 22:49:12;;;;;;;652.35;314.40;;;;;;;8.88;100.00;100041.25;10540913;28;20045;-65
2022/12/22 22:54:14;;;;;;;1074.13;565.28;;;;;;;8.85;100.00;100042.25;10541412;28;20052;-67
2022/12/22 22:59:17;;;;;;;484.52;240.93;;;;;;;8.86;100.00;100048.31;10540360;28;20044;-68
2022/12/22 23:04:19;;;;;;;926.30;478.63;;;;;;;8.86;100.00;100048.31;10540058;28;20105;-66
2022/12/22 23:09:21;;;;;;;728.60;375.90;;;;;;;8.87;100.00;100050.81;10540745;28;20092;-67
2022/12/22 23:14:26;;;;;;;1158.95;333.48;;;;;;;8.95;100.00;100052.22;10537653;28;20063;-66
2022/12/22 23:19:28;;;;;;;313.42;167.65;;;;;;;8.96;100.00;100051.31;10539681;28;20048;-65
2022/12/22 23:24:30;;;;;;;964.63;510.88;;;;;;;8.93;100.00;100052.28;10539407;28;20075;-68
2022/12/22 23:29:33;;;;;;;885.28;402.63;;;;;;;8.91;100.00;100054.13;10539718;28;20048;-65
2022/12/22 23:34:35;;;;;;;640.88;266.55;;;;;;;8.85;100.00;100047.47;10538414;28;20060;-67
2022/12/22 23:39:36;;;;;;;1182.40;438.77;;;;;;;8.84;100.00;100052.75;10539222;28;20055;-65
2022/12/22 23:44:39;;;;;;;641.60;322.73;;;;;;;8.83;100.00;100045.84;10536488;28;20105;-66
2022/12/22 23:49:41;;;;;;;704.33;378.58;;;;;;;8.80;100.00;100046.84;10538572;28;20094;-66
2022/12/22 23:54:43;;;;;;;667.88;331.15;;;;;;;8.78;100.00;100064.28;10538919;28;20044;-66
2022/12/22 23:59:46;;;;;;;768.30;360.10;;;;;;;8.80;100.00;100061.59;10538478;28;20051;-66
